sensor_id;sensor_type;location;lat;lon;timestamp;temperature;humidity
78884;SHT31;68262;51.968;5.672;2023-04-01T00:01:55;11.8;81.0
78884;SHT31;68262;51.968;5.672;2023-04-01T00:04:24;11.8;81.1
78884;SHT31;68262;51.968;5.672;2023-04-01T00:06:54;11.8;80.8
78884;SHT31;68262;51.968;5.672;2023-04-01T00:09:24;11.8;80.9
78884;SHT31;68262;51.968;5.672;2023-04-01T00:11:53;11.8;81.2
78884;SHT31;68262;51.968;5.672;2023-04-01T00:14:23;11.8;81.0
78884;SHT31;68262;51.968;5.672;2023-04-01T00:16:52;11.8;81.1
78884;SHT31;68262;51.968;5.672;2023-04-01T00:19:22;11.8;80.9
78884;SHT31;68262;51.968;5.672;2023-04-01T00:21:51;11.8;81.0
78884;SHT31;68262;51.968;5.672;2023-04-01T00:24:21;11.8;80.9
78884;SHT31;68262;51.968;5.672;2023-04-01T00:26:51;11.8;81.1
78884;SHT31;68262;51.968;5.672;2023-04-01T00:29:20;11.8;80.9
78884;SHT31;68262;51.968;5.672;2023-04-01T00:31:51;11.8;80.8
78884;SHT31;68262;51.968;5.672;2023-04-01T00:34:20;11.8;81.1
78884;SHT31;68262;51.968;5.672;2023-04-01T00:36:51;11.8;81.0
78884;SHT31;68262;51.968;5.672;2023-04-01T00:39:21;11.8;81.2
78884;SHT31;68262;51.968;5.672;2023-04-01T00:41:50;11.8;81.1
78884;SHT31;68262;51.968;5.672;2023-04-01T00:44:23;11.9;81.2
78884;SHT31;68262;51.968;5.672;2023-04-01T00:46:56;11.9;81.3
78884;SHT31;68262;51.968;5.672;2023-04-01T00:49:30;11.9;81.2
78884;SHT31;68262;51.968;5.672;2023-04-01T00:52:02;11.9;80.9
78884;SHT31;68262;51.968;5.672;2023-04-01T00:54:32;11.9;81.0
78884;SHT31;68262;51.968;5.672;2023-04-01T00:57:06;11.9;80.9
78884;SHT31;68262;51.968;5.672;2023-04-01T00:59:40;11.9;80.7
78884;SHT31;68262;51.968;5.672;2023-04-01T01:02:13;12.0;80.9
78884;SHT31;68262;51.968;5.672;2023-04-01T01:04:45;12.0;80.9
78884;SHT31;68262;51.968;5.672;2023-04-01T01:07:22;12.0;81.0
78884;SHT31;68262;51.968;5.672;2023-04-01T01:10:00;12.0;80.8
78884;SHT31;68262;51.968;5.672;2023-04-01T01:12:37;12.0;80.7
78884;SHT31;68262;51.968;5.672;2023-04-01T01:15:19;12.0;81.0
78884;SHT31;68262;51.968;5.672;2023-04-01T01:17:59;12.0;81.0
78884;SHT31;68262;51.968;5.672;2023-04-01T01:22:34;12.0;80.5
78884;SHT31;68262;51.968;5.672;2023-04-01T01:25:28;12.1;80.5
78884;SHT31;68262;51.968;5.672;2023-04-01T01:28:14;12.1;79.9
78884;SHT31;68262;51.968;5.672;2023-04-01T01:30:50;12.1;80.2
78884;SHT31;68262;51.968;5.672;2023-04-01T01:33:37;12.1;79.5
78884;SHT31;68262;51.968;5.672;2023-04-01T01:36:09;12.1;79.1
78884;SHT31;68262;51.968;5.672;2023-04-01T01:38:40;12.1;78.4
78884;SHT31;68262;51.968;5.672;2023-04-01T01:41:14;12.2;78.7
78884;SHT31;68262;51.968;5.672;2023-04-01T01:43:49;12.2;77.9
78884;SHT31;68262;51.968;5.672;2023-04-01T01:46:23;12.2;78.0
78884;SHT31;68262;51.968;5.672;2023-04-01T01:48:55;12.2;77.7
78884;SHT31;68262;51.968;5.672;2023-04-01T01:51:27;12.2;77.7
78884;SHT31;68262;51.968;5.672;2023-04-01T01:53:57;12.2;77.2
78884;SHT31;68262;51.968;5.672;2023-04-01T01:56:28;12.2;77.0
78884;SHT31;68262;51.968;5.672;2023-04-01T01:59:02;12.2;77.1
78884;SHT31;68262;51.968;5.672;2023-04-01T02:01:37;12.2;76.9
78884;SHT31;68262;51.968;5.672;2023-04-01T02:04:09;12.2;76.8
78884;SHT31;68262;51.968;5.672;2023-04-01T02:06:44;12.2;77.2
78884;SHT31;68262;51.968;5.672;2023-04-01T02:09:16;12.2;77.8
78884;SHT31;68262;51.968;5.672;2023-04-01T02:11:49;12.2;77.7
78884;SHT31;68262;51.968;5.672;2023-04-01T02:14:23;12.2;78.2
78884;SHT31;68262;51.968;5.672;2023-04-01T02:16:57;12.2;77.9
78884;SHT31;68262;51.968;5.672;2023-04-01T02:19:34;12.2;77.8
78884;SHT31;68262;51.968;5.672;2023-04-01T02:22:08;12.2;77.8
78884;SHT31;68262;51.968;5.672;2023-04-01T02:24:44;12.2;77.8
78884;SHT31;68262;51.968;5.672;2023-04-01T02:27:14;12.1;77.9
78884;SHT31;68262;51.968;5.672;2023-04-01T02:29:44;12.1;77.9
78884;SHT31;68262;51.968;5.672;2023-04-01T02:32:14;12.1;78.2
78884;SHT31;68262;51.968;5.672;2023-04-01T02:34:46;12.1;78.4
78884;SHT31;68262;51.968;5.672;2023-04-01T02:37:17;12.1;78.4
78884;SHT31;68262;51.968;5.672;2023-04-01T02:39:47;12.1;78.4
78884;SHT31;68262;51.968;5.672;2023-04-01T02:42:16;12.1;78.7
78884;SHT31;68262;51.968;5.672;2023-04-01T02:44:47;12.1;78.6
78884;SHT31;68262;51.968;5.672;2023-04-01T02:47:17;12.0;78.6
78884;SHT31;68262;51.968;5.672;2023-04-01T02:49:46;12.0;78.4
78884;SHT31;68262;51.968;5.672;2023-04-01T02:52:15;12.0;78.1
78884;SHT31;68262;51.968;5.672;2023-04-01T02:54:45;12.0;78.1
78884;SHT31;68262;51.968;5.672;2023-04-01T02:57:15;12.0;78.4
78884;SHT31;68262;51.968;5.672;2023-04-01T02:59:44;12.0;78.8
78884;SHT31;68262;51.968;5.672;2023-04-01T03:02:14;11.9;78.7
78884;SHT31;68262;51.968;5.672;2023-04-01T03:04:44;11.9;79.0
78884;SHT31;68262;51.968;5.672;2023-04-01T03:07:13;11.9;79.0
78884;SHT31;68262;51.968;5.672;2023-04-01T03:09:43;11.9;79.5
78884;SHT31;68262;51.968;5.672;2023-04-01T03:12:13;11.8;79.0
78884;SHT31;68262;51.968;5.672;2023-04-01T03:14:42;11.8;79.0
78884;SHT31;68262;51.968;5.672;2023-04-01T03:17:12;11.8;79.3
78884;SHT31;68262;51.968;5.672;2023-04-01T03:19:44;11.8;79.4
78884;SHT31;68262;51.968;5.672;2023-04-01T03:22:13;11.8;79.3
78884;SHT31;68262;51.968;5.672;2023-04-01T03:24:43;11.8;79.3
78884;SHT31;68262;51.968;5.672;2023-04-01T03:27:12;11.7;79.2
78884;SHT31;68262;51.968;5.672;2023-04-01T03:29:42;11.7;79.5
78884;SHT31;68262;51.968;5.672;2023-04-01T03:32:12;11.7;79.5
78884;SHT31;68262;51.968;5.672;2023-04-01T03:34:41;11.7;79.3
78884;SHT31;68262;51.968;5.672;2023-04-01T03:37:11;11.7;79.3
78884;SHT31;68262;51.968;5.672;2023-04-01T03:39:43;11.8;79.4
78884;SHT31;68262;51.968;5.672;2023-04-01T03:42:12;11.8;79.1
78884;SHT31;68262;51.968;5.672;2023-04-01T03:44:42;11.8;79.0
78884;SHT31;68262;51.968;5.672;2023-04-01T03:47:12;11.7;79.1
78884;SHT31;68262;51.968;5.672;2023-04-01T03:49:42;11.7;79.5
78884;SHT31;68262;51.968;5.672;2023-04-01T03:52:11;11.7;79.3
78884;SHT31;68262;51.968;5.672;2023-04-01T03:54:41;11.7;79.5
78884;SHT31;68262;51.968;5.672;2023-04-01T03:57:10;11.7;79.6
78884;SHT31;68262;51.968;5.672;2023-04-01T03:59:40;11.7;79.4
78884;SHT31;68262;51.968;5.672;2023-04-01T04:02:09;11.7;79.1
78884;SHT31;68262;51.968;5.672;2023-04-01T04:04:39;11.7;79.4
78884;SHT31;68262;51.968;5.672;2023-04-01T04:07:09;11.7;78.8
78884;SHT31;68262;51.968;5.672;2023-04-01T04:09:39;11.7;79.1
78884;SHT31;68262;51.968;5.672;2023-04-01T04:12:10;11.7;79.2
78884;SHT31;68262;51.968;5.672;2023-04-01T04:14:40;11.7;79.1
78884;SHT31;68262;51.968;5.672;2023-04-01T04:17:12;11.7;79.1
78884;SHT31;68262;51.968;5.672;2023-04-01T04:19:44;11.7;79.2
78884;SHT31;68262;51.968;5.672;2023-04-01T04:22:13;11.7;79.2
78884;SHT31;68262;51.968;5.672;2023-04-01T04:24:43;11.8;79.1
78884;SHT31;68262;51.968;5.672;2023-04-01T04:27:12;11.8;79.0
78884;SHT31;68262;51.968;5.672;2023-04-01T04:29:42;11.8;79.2
78884;SHT31;68262;51.968;5.672;2023-04-01T04:32:11;11.8;79.3
78884;SHT31;68262;51.968;5.672;2023-04-01T04:34:41;11.8;79.2
78884;SHT31;68262;51.968;5.672;2023-04-01T04:37:10;11.8;79.1
78884;SHT31;68262;51.968;5.672;2023-04-01T04:39:40;11.9;78.9
78884;SHT31;68262;51.968;5.672;2023-04-01T04:42:09;11.9;78.9
78884;SHT31;68262;51.968;5.672;2023-04-01T04:44:39;11.9;78.4
78884;SHT31;68262;51.968;5.672;2023-04-01T04:47:09;11.9;78.4
78884;SHT31;68262;51.968;5.672;2023-04-01T04:49:38;11.9;78.6
78884;SHT31;68262;51.968;5.672;2023-04-01T04:52:08;11.9;78.7
78884;SHT31;68262;51.968;5.672;2023-04-01T04:54:38;11.9;78.8
78884;SHT31;68262;51.968;5.672;2023-04-01T04:57:07;11.9;78.8
78884;SHT31;68262;51.968;5.672;2023-04-01T04:59:37;11.9;78.8
78884;SHT31;68262;51.968;5.672;2023-04-01T05:02:06;11.9;78.8
78884;SHT31;68262;51.968;5.672;2023-04-01T05:04:37;11.9;78.8
78884;SHT31;68262;51.968;5.672;2023-04-01T05:07:06;11.9;78.9
78884;SHT31;68262;51.968;5.672;2023-04-01T05:09:36;11.9;78.7
78884;SHT31;68262;51.968;5.672;2023-04-01T05:12:07;11.9;79.0
78884;SHT31;68262;51.968;5.672;2023-04-01T05:14:37;11.9;79.1
78884;SHT31;68262;51.968;5.672;2023-04-01T05:17:08;11.9;79.2
78884;SHT31;68262;51.968;5.672;2023-04-01T05:19:38;12.0;79.1
78884;SHT31;68262;51.968;5.672;2023-04-01T05:22:08;12.0;79.1
78884;SHT31;68262;51.968;5.672;2023-04-01T05:24:39;12.0;79.2
78884;SHT31;68262;51.968;5.672;2023-04-01T05:27:09;12.0;79.4
78884;SHT31;68262;51.968;5.672;2023-04-01T05:29:38;12.0;79.4
78884;SHT31;68262;51.968;5.672;2023-04-01T05:32:08;12.0;79.3
78884;SHT31;68262;51.968;5.672;2023-04-01T05:34:38;12.0;79.4
78884;SHT31;68262;51.968;5.672;2023-04-01T05:37:07;12.0;79.4
78884;SHT31;68262;51.968;5.672;2023-04-01T05:39:38;12.1;79.3
78884;SHT31;68262;51.968;5.672;2023-04-01T05:42:08;12.1;79.3
78884;SHT31;68262;51.968;5.672;2023-04-01T05:44:38;12.1;79.3
78884;SHT31;68262;51.968;5.672;2023-04-01T05:47:07;12.1;79.4
78884;SHT31;68262;51.968;5.672;2023-04-01T05:49:37;12.1;79.4
78884;SHT31;68262;51.968;5.672;2023-04-01T05:52:09;12.1;79.5
78884;SHT31;68262;51.968;5.672;2023-04-01T05:54:39;12.1;79.4
78884;SHT31;68262;51.968;5.672;2023-04-01T05:57:08;12.2;79.4
78884;SHT31;68262;51.968;5.672;2023-04-01T05:59:38;12.2;79.3
78884;SHT31;68262;51.968;5.672;2023-04-01T06:02:08;12.2;79.4
78884;SHT31;68262;51.968;5.672;2023-04-01T06:04:40;12.2;79.5
78884;SHT31;68262;51.968;5.672;2023-04-01T06:07:14;12.2;79.3
78884;SHT31;68262;51.968;5.672;2023-04-01T06:09:44;12.2;79.1
78884;SHT31;68262;51.968;5.672;2023-04-01T06:12:36;12.3;79.3
78884;SHT31;68262;51.968;5.672;2023-04-01T06:15:19;12.3;79.2
78884;SHT31;68262;51.968;5.672;2023-04-01T06:18:08;12.3;79.0
78884;SHT31;68262;51.968;5.672;2023-04-01T06:20:44;12.3;78.8
78884;SHT31;68262;51.968;5.672;2023-04-01T06:23:27;12.3;78.8
78884;SHT31;68262;51.968;5.672;2023-04-01T06:26:12;12.4;78.9
78884;SHT31;68262;51.968;5.672;2023-04-01T06:29:00;12.4;78.9
78884;SHT31;68262;51.968;5.672;2023-04-01T06:31:42;12.4;78.9
78884;SHT31;68262;51.968;5.672;2023-04-01T06:34:23;12.4;78.9
78884;SHT31;68262;51.968;5.672;2023-04-01T06:37:13;12.4;78.9
78884;SHT31;68262;51.968;5.672;2023-04-01T06:40:22;12.4;79.1
78884;SHT31;68262;51.968;5.672;2023-04-01T06:43:08;12.5;78.8
78884;SHT31;68262;51.968;5.672;2023-04-01T06:45:50;12.5;78.8
78884;SHT31;68262;51.968;5.672;2023-04-01T06:48:38;12.5;78.8
78884;SHT31;68262;51.968;5.672;2023-04-01T06:51:20;12.5;78.1
78884;SHT31;68262;51.968;5.672;2023-04-01T06:54:03;12.5;78.4
78884;SHT31;68262;51.968;5.672;2023-04-01T06:56:38;12.5;78.3
78884;SHT31;68262;51.968;5.672;2023-04-01T06:59:15;12.5;78.5
78884;SHT31;68262;51.968;5.672;2023-04-01T07:01:50;12.5;78.3
78884;SHT31;68262;51.968;5.672;2023-04-01T07:04:28;12.6;78.4
78884;SHT31;68262;51.968;5.672;2023-04-01T07:07:01;12.6;78.5
78884;SHT31;68262;51.968;5.672;2023-04-01T07:09:37;12.6;78.2
78884;SHT31;68262;51.968;5.672;2023-04-01T07:12:15;12.6;78.1
78884;SHT31;68262;51.968;5.672;2023-04-01T07:14:51;12.6;78.3
78884;SHT31;68262;51.968;5.672;2023-04-01T07:17:27;12.6;78.5
78884;SHT31;68262;51.968;5.672;2023-04-01T07:20:03;12.6;78.0
78884;SHT31;68262;51.968;5.672;2023-04-01T07:22:38;12.6;78.3
78884;SHT31;68262;51.968;5.672;2023-04-01T07:25:13;12.6;78.0
78884;SHT31;68262;51.968;5.672;2023-04-01T07:27:44;12.6;78.2
78884;SHT31;68262;51.968;5.672;2023-04-01T07:30:17;12.6;78.4
78884;SHT31;68262;51.968;5.672;2023-04-01T07:32:51;12.6;78.1
78884;SHT31;68262;51.968;5.672;2023-04-01T07:35:28;12.7;78.2
78884;SHT31;68262;51.968;5.672;2023-04-01T07:38:10;12.7;78.4
78884;SHT31;68262;51.968;5.672;2023-04-01T07:40:51;12.7;78.0
78884;SHT31;68262;51.968;5.672;2023-04-01T07:43:37;12.7;78.3
78884;SHT31;68262;51.968;5.672;2023-04-01T07:46:17;12.7;78.5
78884;SHT31;68262;51.968;5.672;2023-04-01T07:48:57;12.7;78.5
78884;SHT31;68262;51.968;5.672;2023-04-01T07:51:34;12.7;78.2
78884;SHT31;68262;51.968;5.672;2023-04-01T07:54:11;12.7;78.1
78884;SHT31;68262;51.968;5.672;2023-04-01T07:56:51;12.7;78.3
78884;SHT31;68262;51.968;5.672;2023-04-01T07:59:28;12.7;78.1
78884;SHT31;68262;51.968;5.672;2023-04-01T08:02:10;12.7;77.8
78884;SHT31;68262;51.968;5.672;2023-04-01T08:04:57;12.7;77.9
78884;SHT31;68262;51.968;5.672;2023-04-01T08:07:39;12.8;77.7
78884;SHT31;68262;51.968;5.672;2023-04-01T08:10:16;12.8;77.8
78884;SHT31;68262;51.968;5.672;2023-04-01T08:12:59;12.8;77.7
78884;SHT31;68262;51.968;5.672;2023-04-01T08:15:37;12.8;77.8
78884;SHT31;68262;51.968;5.672;2023-04-01T08:18:22;12.8;77.8
78884;SHT31;68262;51.968;5.672;2023-04-01T08:20:59;12.8;77.6
78884;SHT31;68262;51.968;5.672;2023-04-01T08:23:32;12.9;77.7
78884;SHT31;68262;51.968;5.672;2023-04-01T08:26:10;12.9;77.7
78884;SHT31;68262;51.968;5.672;2023-04-01T08:28:46;12.9;77.7
78884;SHT31;68262;51.968;5.672;2023-04-01T08:31:29;12.9;78.2
78884;SHT31;68262;51.968;5.672;2023-04-01T08:34:02;12.9;78.3
78884;SHT31;68262;51.968;5.672;2023-04-01T08:36:37;12.9;78.2
78884;SHT31;68262;51.968;5.672;2023-04-01T08:39:10;12.9;78.5
78884;SHT31;68262;51.968;5.672;2023-04-01T08:47:07;13.0;77.5
78884;SHT31;68262;51.968;5.672;2023-04-01T08:49:56;13.0;77.9
78884;SHT31;68262;51.968;5.672;2023-04-01T08:52:46;13.0;78.0
78884;SHT31;68262;51.968;5.672;2023-04-01T08:55:28;13.0;78.0
78884;SHT31;68262;51.968;5.672;2023-04-01T08:58:18;13.0;78.1
78884;SHT31;68262;51.968;5.672;2023-04-01T09:00:54;13.0;78.0
78884;SHT31;68262;51.968;5.672;2023-04-01T09:03:49;13.0;77.9
78884;SHT31;68262;51.968;5.672;2023-04-01T09:06:37;13.0;77.7
78884;SHT31;68262;51.968;5.672;2023-04-01T09:09:33;13.0;77.8
78884;SHT31;68262;51.968;5.672;2023-04-01T09:12:45;13.1;77.8
78884;SHT31;68262;51.968;5.672;2023-04-01T09:15:40;13.1;77.7
78884;SHT31;68262;51.968;5.672;2023-04-01T09:18:34;13.1;77.7
78884;SHT31;68262;51.968;5.672;2023-04-01T09:21:39;13.1;77.3
78884;SHT31;68262;51.968;5.672;2023-04-01T09:25:12;13.1;77.5
78884;SHT31;68262;51.968;5.672;2023-04-01T09:27:56;13.2;78.1
78884;SHT31;68262;51.968;5.672;2023-04-01T09:30:57;13.2;77.7
78884;SHT31;68262;51.968;5.672;2023-04-01T09:34:00;13.2;77.7
78884;SHT31;68262;51.968;5.672;2023-04-01T09:36:47;13.3;78.0
78884;SHT31;68262;51.968;5.672;2023-04-01T09:39:36;13.3;77.8
78884;SHT31;68262;51.968;5.672;2023-04-01T09:42:43;13.4;77.3
78884;SHT31;68262;51.968;5.672;2023-04-01T09:45:28;13.4;77.1
78884;SHT31;68262;51.968;5.672;2023-04-01T09:48:14;13.4;76.9
78884;SHT31;68262;51.968;5.672;2023-04-01T09:50:55;13.5;76.8
78884;SHT31;68262;51.968;5.672;2023-04-01T09:53:41;13.5;76.2
78884;SHT31;68262;51.968;5.672;2023-04-01T10:02:37;13.6;77.0
78884;SHT31;68262;51.968;5.672;2023-04-01T10:10:38;13.8;76.4
78884;SHT31;68262;51.968;5.672;2023-04-01T10:15:29;13.9;76.6
78884;SHT31;68262;51.968;5.672;2023-04-01T10:18:35;14.1;78.2
78884;SHT31;68262;51.968;5.672;2023-04-01T10:21:27;14.3;76.1
78884;SHT31;68262;51.968;5.672;2023-04-01T10:27:35;14.5;74.1
78884;SHT31;68262;51.968;5.672;2023-04-01T10:38:39;15.0;74.0
78884;SHT31;68262;51.968;5.672;2023-04-01T10:42:13;15.1;73.3
78884;SHT31;68262;51.968;5.672;2023-04-01T10:45:23;15.4;72.1
78884;SHT31;68262;51.968;5.672;2023-04-01T10:48:16;15.5;72.7
78884;SHT31;68262;51.968;5.672;2023-04-01T10:51:16;15.7;69.9
78884;SHT31;68262;51.968;5.672;2023-04-01T10:54:11;15.8;68.6
78884;SHT31;68262;51.968;5.672;2023-04-01T10:57:11;15.8;68.0
78884;SHT31;68262;51.968;5.672;2023-04-01T11:00:59;15.8;69.0
78884;SHT31;68262;51.968;5.672;2023-04-01T11:04:11;15.9;67.0
78884;SHT31;68262;51.968;5.672;2023-04-01T11:11:26;16.0;68.3
78884;SHT31;68262;51.968;5.672;2023-04-01T11:16:23;16.0;67.1
78884;SHT31;68262;51.968;5.672;2023-04-01T11:19:22;16.0;67.5
78884;SHT31;68262;51.968;5.672;2023-04-01T11:22:26;15.9;67.4
78884;SHT31;68262;51.968;5.672;2023-04-01T11:25:23;15.8;67.4
78884;SHT31;68262;51.968;5.672;2023-04-01T11:28:15;15.8;67.4
78884;SHT31;68262;51.968;5.672;2023-04-01T11:31:08;15.7;68.4
78884;SHT31;68262;51.968;5.672;2023-04-01T11:33:46;15.7;68.5
78884;SHT31;68262;51.968;5.672;2023-04-01T11:36:32;15.7;68.8
78884;SHT31;68262;51.968;5.672;2023-04-01T11:39:20;15.6;69.5
78884;SHT31;68262;51.968;5.672;2023-04-01T11:42:03;15.6;69.5
78884;SHT31;68262;51.968;5.672;2023-04-01T11:44:43;15.6;68.9
78884;SHT31;68262;51.968;5.672;2023-04-01T11:47:39;15.6;69.1
78884;SHT31;68262;51.968;5.672;2023-04-01T11:50:23;15.7;68.6
78884;SHT31;68262;51.968;5.672;2023-04-01T11:53:08;15.7;67.2
78884;SHT31;68262;51.968;5.672;2023-04-01T11:55:54;15.7;67.3
78884;SHT31;68262;51.968;5.672;2023-04-01T11:59:01;15.7;67.3
78884;SHT31;68262;51.968;5.672;2023-04-01T12:01:47;15.6;67.8
78884;SHT31;68262;51.968;5.672;2023-04-01T12:04:38;15.5;67.9
78884;SHT31;68262;51.968;5.672;2023-04-01T12:07:21;15.5;68.0
78884;SHT31;68262;51.968;5.672;2023-04-01T12:10:02;15.4;68.7
78884;SHT31;68262;51.968;5.672;2023-04-01T12:12:40;15.3;69.3
78884;SHT31;68262;51.968;5.672;2023-04-01T12:15:25;15.3;70.1
78884;SHT31;68262;51.968;5.672;2023-04-01T12:18:05;15.3;70.3
78884;SHT31;68262;51.968;5.672;2023-04-01T12:20:47;15.3;68.9
78884;SHT31;68262;51.968;5.672;2023-04-01T12:23:33;15.2;70.4
78884;SHT31;68262;51.968;5.672;2023-04-01T12:26:18;15.2;70.6
78884;SHT31;68262;51.968;5.672;2023-04-01T12:29:06;15.2;71.9
78884;SHT31;68262;51.968;5.672;2023-04-01T12:31:44;15.2;70.7
78884;SHT31;68262;51.968;5.672;2023-04-01T12:34:38;15.2;70.1
78884;SHT31;68262;51.968;5.672;2023-04-01T12:37:18;15.2;69.6
78884;SHT31;68262;51.968;5.672;2023-04-01T12:40:20;15.2;69.1
78884;SHT31;68262;51.968;5.672;2023-04-01T12:43:32;15.2;68.5
78884;SHT31;68262;51.968;5.672;2023-04-01T12:46:15;15.1;69.7
78884;SHT31;68262;51.968;5.672;2023-04-01T12:49:07;15.1;69.6
78884;SHT31;68262;51.968;5.672;2023-04-01T12:51:47;15.1;69.4
78884;SHT31;68262;51.968;5.672;2023-04-01T13:00:04;15.0;71.3
78884;SHT31;68262;51.968;5.672;2023-04-01T13:02:50;15.1;72.0
78884;SHT31;68262;51.968;5.672;2023-04-01T13:05:47;15.1;71.7
78884;SHT31;68262;51.968;5.672;2023-04-01T13:08:33;15.1;72.7
78884;SHT31;68262;51.968;5.672;2023-04-01T13:11:17;15.1;71.2
78884;SHT31;68262;51.968;5.672;2023-04-01T13:14:16;15.2;72.0
78884;SHT31;68262;51.968;5.672;2023-04-01T13:16:55;15.2;70.9
78884;SHT31;68262;51.968;5.672;2023-04-01T13:19:33;15.3;70.5
78884;SHT31;68262;51.968;5.672;2023-04-01T13:22:14;15.3;70.1
78884;SHT31;68262;51.968;5.672;2023-04-01T13:24:51;15.3;69.7
78884;SHT31;68262;51.968;5.672;2023-04-01T13:27:30;15.3;70.4
78884;SHT31;68262;51.968;5.672;2023-04-01T13:30:23;15.3;70.7
78884;SHT31;68262;51.968;5.672;2023-04-01T13:33:01;15.3;71.1
78884;SHT31;68262;51.968;5.672;2023-04-01T13:35:42;15.3;70.4
78884;SHT31;68262;51.968;5.672;2023-04-01T13:38:35;15.3;71.0
78884;SHT31;68262;51.968;5.672;2023-04-01T13:41:17;15.3;71.1
78884;SHT31;68262;51.968;5.672;2023-04-01T13:43:55;15.2;70.0
78884;SHT31;68262;51.968;5.672;2023-04-01T13:46:52;15.2;70.1
78884;SHT31;68262;51.968;5.672;2023-04-01T13:49:35;15.2;70.5
78884;SHT31;68262;51.968;5.672;2023-04-01T13:52:44;15.1;70.4
78884;SHT31;68262;51.968;5.672;2023-04-01T13:55:32;15.1;71.0
78884;SHT31;68262;51.968;5.672;2023-04-01T13:58:34;15.1;71.2
78884;SHT31;68262;51.968;5.672;2023-04-01T14:01:13;15.0;71.5
78884;SHT31;68262;51.968;5.672;2023-04-01T14:05:14;15.0;71.4
78884;SHT31;68262;51.968;5.672;2023-04-01T14:07:55;14.9;71.3
78884;SHT31;68262;51.968;5.672;2023-04-01T14:10:32;14.9;71.3
78884;SHT31;68262;51.968;5.672;2023-04-01T14:13:12;14.9;71.9
78884;SHT31;68262;51.968;5.672;2023-04-01T14:15:56;14.9;72.4
78884;SHT31;68262;51.968;5.672;2023-04-01T14:18:45;14.9;72.3
78884;SHT31;68262;51.968;5.672;2023-04-01T14:21:31;14.9;72.8
78884;SHT31;68262;51.968;5.672;2023-04-01T14:24:43;14.9;72.5
78884;SHT31;68262;51.968;5.672;2023-04-01T14:27:30;14.9;72.1
78884;SHT31;68262;51.968;5.672;2023-04-01T14:30:24;14.8;72.7
78884;SHT31;68262;51.968;5.672;2023-04-01T14:33:10;14.8;72.2
78884;SHT31;68262;51.968;5.672;2023-04-01T14:35:46;14.8;72.4
78884;SHT31;68262;51.968;5.672;2023-04-01T14:38:42;14.8;72.7
78884;SHT31;68262;51.968;5.672;2023-04-01T14:41:21;14.9;72.0
78884;SHT31;68262;51.968;5.672;2023-04-01T14:44:24;14.9;71.8
78884;SHT31;68262;51.968;5.672;2023-04-01T14:50:45;14.9;72.8
78884;SHT31;68262;51.968;5.672;2023-04-01T14:53:28;14.9;72.9
78884;SHT31;68262;51.968;5.672;2023-04-01T14:55:59;14.9;73.0
78884;SHT31;68262;51.968;5.672;2023-04-01T14:58:45;14.9;72.8
78884;SHT31;68262;51.968;5.672;2023-04-01T15:01:37;14.9;72.7
78884;SHT31;68262;51.968;5.672;2023-04-01T15:04:24;14.9;72.7
78884;SHT31;68262;51.968;5.672;2023-04-01T15:07:09;14.9;72.7
78884;SHT31;68262;51.968;5.672;2023-04-01T15:09:51;14.9;72.7
78884;SHT31;68262;51.968;5.672;2023-04-01T15:12:30;14.9;72.9
78884;SHT31;68262;51.968;5.672;2023-04-01T15:15:26;14.9;72.8
78884;SHT31;68262;51.968;5.672;2023-04-01T15:18:08;14.9;72.7
78884;SHT31;68262;51.968;5.672;2023-04-01T15:21:00;14.9;72.3
78884;SHT31;68262;51.968;5.672;2023-04-01T15:23:39;14.9;72.5
78884;SHT31;68262;51.968;5.672;2023-04-01T15:26:23;14.9;73.0
78884;SHT31;68262;51.968;5.672;2023-04-01T15:29:22;14.9;72.8
78884;SHT31;68262;51.968;5.672;2023-04-01T15:31:50;14.9;72.5
78884;SHT31;68262;51.968;5.672;2023-04-01T15:34:35;14.9;72.4
78884;SHT31;68262;51.968;5.672;2023-04-01T15:37:16;14.9;72.6
78884;SHT31;68262;51.968;5.672;2023-04-01T15:39:56;14.8;72.8
78884;SHT31;68262;51.968;5.672;2023-04-01T15:42:43;14.8;71.5
78884;SHT31;68262;51.968;5.672;2023-04-01T15:45:18;14.8;71.5
78884;SHT31;68262;51.968;5.672;2023-04-01T15:48:01;14.7;71.7
78884;SHT31;68262;51.968;5.672;2023-04-01T15:50:52;14.7;71.5
78884;SHT31;68262;51.968;5.672;2023-04-01T15:53:41;14.7;71.8
78884;SHT31;68262;51.968;5.672;2023-04-01T15:56:28;14.6;71.7
78884;SHT31;68262;51.968;5.672;2023-04-01T15:59:13;14.6;71.8
78884;SHT31;68262;51.968;5.672;2023-04-01T16:01:53;14.6;72.1
78884;SHT31;68262;51.968;5.672;2023-04-01T16:04:51;14.5;71.2
78884;SHT31;68262;51.968;5.672;2023-04-01T16:08:36;14.5;72.1
78884;SHT31;68262;51.968;5.672;2023-04-01T16:11:15;14.5;71.8
78884;SHT31;68262;51.968;5.672;2023-04-01T16:13:58;14.4;71.5
78884;SHT31;68262;51.968;5.672;2023-04-01T16:16:44;14.4;71.9
78884;SHT31;68262;51.968;5.672;2023-04-01T16:19:33;14.4;72.1
78884;SHT31;68262;51.968;5.672;2023-04-01T16:22:07;14.4;72.2
78884;SHT31;68262;51.968;5.672;2023-04-01T16:24:44;14.3;71.8
78884;SHT31;68262;51.968;5.672;2023-04-01T16:27:24;14.3;71.8
78884;SHT31;68262;51.968;5.672;2023-04-01T16:30:03;14.3;71.5
78884;SHT31;68262;51.968;5.672;2023-04-01T16:32:44;14.3;71.4
78884;SHT31;68262;51.968;5.672;2023-04-01T16:35:28;14.2;71.5
78884;SHT31;68262;51.968;5.672;2023-04-01T16:38:07;14.2;71.9
78884;SHT31;68262;51.968;5.672;2023-04-01T16:40:43;14.2;71.9
78884;SHT31;68262;51.968;5.672;2023-04-01T16:43:20;14.2;71.9
78884;SHT31;68262;51.968;5.672;2023-04-01T16:46:12;14.1;71.6
78884;SHT31;68262;51.968;5.672;2023-04-01T16:48:49;14.1;71.6
78884;SHT31;68262;51.968;5.672;2023-04-01T16:51:22;14.1;72.2
78884;SHT31;68262;51.968;5.672;2023-04-01T16:54:02;14.1;71.9
78884;SHT31;68262;51.968;5.672;2023-04-01T16:56:41;14.1;71.7
78884;SHT31;68262;51.968;5.672;2023-04-01T16:59:20;14.1;71.6
78884;SHT31;68262;51.968;5.672;2023-04-01T17:01:53;14.1;71.2
78884;SHT31;68262;51.968;5.672;2023-04-01T17:04:34;14.0;71.1
78884;SHT31;68262;51.968;5.672;2023-04-01T17:07:14;14.0;71.3
78884;SHT31;68262;51.968;5.672;2023-04-01T17:10:03;14.0;71.2
78884;SHT31;68262;51.968;5.672;2023-04-01T17:12:45;13.9;71.1
78884;SHT31;68262;51.968;5.672;2023-04-01T17:15:25;13.9;71.2
78884;SHT31;68262;51.968;5.672;2023-04-01T17:18:03;13.9;71.4
78884;SHT31;68262;51.968;5.672;2023-04-01T17:20:45;13.9;71.3
78884;SHT31;68262;51.968;5.672;2023-04-01T17:23:26;13.9;70.4
78884;SHT31;68262;51.968;5.672;2023-04-01T17:26:23;13.8;70.8
78884;SHT31;68262;51.968;5.672;2023-04-01T17:29:01;13.8;70.4
78884;SHT31;68262;51.968;5.672;2023-04-01T17:31:45;13.7;70.1
78884;SHT31;68262;51.968;5.672;2023-04-01T17:35:05;13.7;70.7
78884;SHT31;68262;51.968;5.672;2023-04-01T17:37:49;13.7;71.0
78884;SHT31;68262;51.968;5.672;2023-04-01T17:40:33;13.6;71.1
78884;SHT31;68262;51.968;5.672;2023-04-01T17:43:15;13.6;70.5
78884;SHT31;68262;51.968;5.672;2023-04-01T17:45:52;13.6;70.8
78884;SHT31;68262;51.968;5.672;2023-04-01T17:48:36;13.5;70.6
78884;SHT31;68262;51.968;5.672;2023-04-01T17:51:19;13.5;70.6
78884;SHT31;68262;51.968;5.672;2023-04-01T17:54:02;13.5;70.6
78884;SHT31;68262;51.968;5.672;2023-04-01T17:56:47;13.4;70.4
78884;SHT31;68262;51.968;5.672;2023-04-01T17:59:27;13.4;70.3
78884;SHT31;68262;51.968;5.672;2023-04-01T18:02:13;13.3;70.2
78884;SHT31;68262;51.968;5.672;2023-04-01T18:05:11;13.3;70.9
78884;SHT31;68262;51.968;5.672;2023-04-01T18:08:02;13.3;70.8
78884;SHT31;68262;51.968;5.672;2023-04-01T18:10:43;13.2;71.1
78884;SHT31;68262;51.968;5.672;2023-04-01T18:13:44;13.2;71.1
78884;SHT31;68262;51.968;5.672;2023-04-01T18:16:28;13.2;70.5
78884;SHT31;68262;51.968;5.672;2023-04-01T18:19:05;13.1;70.1